Time;durP1;ratioP1;P1;durP2;ratioP2;P2;SDS_P1;SDS_P2;PMS_P1;PMS_P2;Temp;Humidity;BMP_temperature;BMP_pressure;BME280_temperature;BME280_humidity;BME280_pressure;Samples;Min_cycle;Max_cycle;Signal;HPM_P1;HPM_P2
2023/04/13 00:00:29;;;;;;;2.43;0.70;;;7.40;99.90;;;;;;5105086;28;20044;-84
2023/04/13 00:02:55;;;;;;;1.03;0.73;;;7.40;99.90;;;;;;5104025;28;20024;-85
2023/04/13 00:05:21;;;;;;;0.87;0.80;;;7.30;99.90;;;;;;5107720;28;20038;-84
2023/04/13 00:07:47;;;;;;;1.77;0.80;;;7.30;99.90;;;;;;5105233;28;20032;-85
2023/04/13 00:10:14;;;;;;;0.80;0.80;;;7.30;99.90;;;;;;5105588;28;20100;-83
2023/04/13 00:12:41;;;;;;;0.93;0.83;;;7.30;99.90;;;;;;5104126;28;20101;-85
2023/04/13 00:15:08;;;;;;;1.53;1.10;;;7.40;99.90;;;;;;5104217;28;20043;-84
2023/04/13 00:17:34;;;;;;;2.70;0.83;;;7.30;99.90;;;;;;5102924;28;20032;-84
2023/04/13 00:20:07;;;;;;;1.77;0.90;;;7.20;99.90;;;;;;5100555;28;20180;-84
2023/04/13 00:22:33;;;;;;;1.20;0.90;;;7.20;99.90;;;;;;5098253;28;20028;-84
2023/04/13 00:24:58;;;;;;;2.67;0.90;;;7.10;99.90;;;;;;5095701;28;20048;-84
2023/04/13 00:27:29;;;;;;;0.93;0.80;;;7.10;99.90;;;;;;5093534;28;20072;-84
2023/04/13 00:29:55;;;;;;;1.17;0.83;;;7.10;99.90;;;;;;5092552;28;20119;-84
2023/04/13 00:32:24;;;;;;;1.07;0.73;;;7.10;99.90;;;;;;5104239;28;20081;-84
2023/04/13 00:34:50;;;;;;;1.13;0.80;;;7.10;99.90;;;;;;5110124;28;20030;-84
2023/04/13 00:37:17;;;;;;;0.77;0.70;;;7.10;99.90;;;;;;5109561;28;20024;-84
2023/04/13 00:39:45;;;;;;;3.10;0.90;;;7.00;99.90;;;;;;5108501;28;20115;-84
2023/04/13 00:42:11;;;;;;;0.50;0.50;;;7.00;99.90;;;;;;5107739;28;20036;-84
2023/04/13 00:44:38;;;;;;;0.60;0.60;;;7.00;99.90;;;;;;5108490;28;20040;-84
2023/04/13 00:47:07;;;;;;;0.67;0.67;;;6.90;99.90;;;;;;5110746;28;20028;-84
2023/04/13 00:49:33;;;;;;;0.60;0.60;;;6.90;99.90;;;;;;5111009;28;20067;-84
2023/04/13 00:52:02;;;;;;;1.33;0.80;;;6.90;99.90;;;;;;5107396;28;20024;-84
2023/04/13 00:54:28;;;;;;;1.17;0.70;;;6.90;99.90;;;;;;5107903;28;20070;-84
2023/04/13 00:56:58;;;;;;;0.70;0.60;;;6.80;99.90;;;;;;5108226;28;20031;-84
2023/04/13 00:59:26;;;;;;;1.00;0.67;;;6.80;99.90;;;;;;5105720;28;20043;-84
2023/04/13 01:01:55;;;;;;;1.50;0.73;;;6.70;99.90;;;;;;5107165;28;20036;-84
2023/04/13 01:04:26;;;;;;;1.83;0.90;;;6.70;99.90;;;;;;5104856;28;20122;-84
2023/04/13 01:07:10;;;;;;;1.87;0.90;;;6.70;99.90;;;;;;5104035;28;20028;-83
2023/04/13 01:09:54;;;;;;;2.10;1.23;;;6.70;99.90;;;;;;5104814;28;20036;-83
2023/04/13 01:12:26;;;;;;;1.63;0.80;;;6.60;99.90;;;;;;5107352;28;20042;-83
2023/04/13 01:15:00;;;;;;;1.37;0.70;;;6.60;99.90;;;;;;5108637;28;20032;-84
2023/04/13 01:17:29;;;;;;;1.27;0.60;;;6.60;99.90;;;;;;5107543;28;20073;-84
2023/04/13 01:20:10;;;;;;;0.60;0.60;;;6.50;99.90;;;;;;5108345;28;20040;-85
2023/04/13 01:22:40;;;;;;;0.93;0.80;;;6.50;99.90;;;;;;5108903;28;20020;-84
2023/04/13 01:25:29;;;;;;;1.17;0.60;;;6.50;99.90;;;;;;5105930;28;20035;-84
2023/04/13 01:28:00;;;;;;;4.67;1.70;;;6.50;99.90;;;;;;5107707;28;20091;-83
2023/04/13 01:30:27;;;;;;;1.47;0.60;;;6.40;99.90;;;;;;5107998;28;20020;-83
2023/04/13 01:32:53;;;;;;;0.73;0.60;;;6.40;99.90;;;;;;5107867;28;20042;-84
2023/04/13 01:35:21;;;;;;;0.73;0.70;;;6.40;99.90;;;;;;5108232;28;20028;-84
2023/04/13 01:37:51;;;;;;;0.80;0.70;;;6.30;99.90;;;;;;5108829;28;20145;-83
2023/04/13 01:40:20;;;;;;;0.50;0.50;;;6.30;99.90;;;;;;5105333;28;20059;-84
2023/04/13 01:42:46;;;;;;;0.80;0.60;;;6.20;99.90;;;;;;5106616;28;20101;-83
2023/04/13 01:45:14;;;;;;;0.87;0.53;;;6.20;99.90;;;;;;5106277;28;20499;-84
2023/04/13 01:47:47;;;;;;;1.03;0.53;;;6.20;99.90;;;;;;5106531;28;20605;-83
2023/04/13 01:50:27;;;;;;;1.20;0.63;;;6.30;99.90;;;;;;5105065;28;20031;-83
2023/04/13 01:52:56;;;;;;;1.90;0.60;;;6.20;99.90;;;;;;5108085;28;20043;-83
2023/04/13 01:55:22;;;;;;;2.13;0.63;;;6.20;99.90;;;;;;5106329;28;20091;-83
2023/04/13 01:57:50;;;;;;;1.07;0.70;;;6.20;99.90;;;;;;5107712;28;20059;-84
2023/04/13 02:00:17;;;;;;;0.60;0.60;;;6.10;99.90;;;;;;5107871;28;20616;-84
2023/04/13 02:02:43;;;;;;;0.60;0.60;;;6.10;99.90;;;;;;5108590;28;20792;-83
2023/04/13 02:05:10;;;;;;;0.90;0.70;;;6.00;99.90;;;;;;5108750;28;20046;-84
2023/04/13 02:07:39;;;;;;;0.70;0.70;;;6.00;99.90;;;;;;5107939;28;20024;-83
2023/04/13 02:10:05;;;;;;;1.93;0.80;;;6.00;99.90;;;;;;5107132;28;20032;-84
2023/04/13 02:12:34;;;;;;;0.83;0.70;;;6.00;99.90;;;;;;5108667;28;20138;-84
2023/04/13 02:15:00;;;;;;;2.93;0.77;;;5.90;99.90;;;;;;5107770;28;20035;-83
2023/04/13 02:17:29;;;;;;;1.00;0.70;;;5.90;99.90;;;;;;5108232;28;20062;-83
2023/04/13 02:19:56;;;;;;;0.97;0.70;;;5.90;99.90;;;;;;5107673;28;20047;-83
2023/04/13 02:22:22;;;;;;;1.13;0.70;;;5.90;99.90;;;;;;5107322;28;20020;-84
2023/04/13 02:24:49;;;;;;;1.07;0.70;;;5.90;99.90;;;;;;5106610;28;20055;-84
2023/04/13 02:27:15;;;;;;;0.60;0.60;;;5.90;99.90;;;;;;5108371;28;20947;-84
2023/04/13 02:29:40;;;;;;;0.80;0.70;;;5.90;99.90;;;;;;5107781;28;20043;-82
2023/04/13 02:32:06;;;;;;;2.17;0.67;;;5.80;99.90;;;;;;5108977;28;20039;-83
2023/04/13 02:34:32;;;;;;;1.50;0.80;;;5.80;99.90;;;;;;5106867;28;20032;-84
2023/04/13 02:36:59;;;;;;;0.90;0.63;;;5.80;99.90;;;;;;5108978;27;20081;-83
2023/04/13 02:39:24;;;;;;;0.70;0.70;;;5.80;99.90;;;;;;5114593;27;20036;-83
2023/04/13 02:41:50;;;;;;;2.53;0.77;;;5.80;99.90;;;;;;5115096;27;20031;-84
2023/04/13 02:44:16;;;;;;;0.67;0.67;;;5.80;99.90;;;;;;5109326;28;20031;-83
2023/04/13 02:46:42;;;;;;;2.00;0.60;;;5.80;99.90;;;;;;5107405;28;20047;-84
2023/04/13 02:49:07;;;;;;;1.50;0.60;;;5.80;99.90;;;;;;5108132;28;20032;-83
2023/04/13 02:51:33;;;;;;;2.10;0.70;;;5.80;99.90;;;;;;5107734;28;20024;-84
2023/04/13 02:54:01;;;;;;;1.97;0.70;;;5.70;99.90;;;;;;5106883;28;20067;-84
2023/04/13 02:56:29;;;;;;;1.93;0.73;;;5.70;99.90;;;;;;5109574;28;20036;-84
2023/04/13 02:58:55;;;;;;;1.23;0.70;;;5.70;99.90;;;;;;5107095;28;20036;-84
2023/04/13 03:01:23;;;;;;;0.73;0.60;;;5.70;99.90;;;;;;5107102;28;20036;-84
2023/04/13 03:03:49;;;;;;;1.00;0.80;;;5.70;99.90;;;;;;5107392;28;20596;-84
2023/04/13 03:06:15;;;;;;;1.80;0.80;;;5.60;99.90;;;;;;5106734;28;20059;-83
2023/04/13 03:08:41;;;;;;;1.10;0.73;;;5.60;99.90;;;;;;5108116;28;20669;-83
2023/04/13 03:11:08;;;;;;;1.27;1.17;;;5.60;99.90;;;;;;5107196;28;20246;-83
2023/04/13 03:13:34;;;;;;;3.97;0.83;;;5.60;99.90;;;;;;5108890;28;20020;-82
2023/04/13 03:16:00;;;;;;;0.93;0.80;;;5.60;99.90;;;;;;5107706;28;20036;-83
2023/04/13 03:18:26;;;;;;;0.77;0.70;;;5.50;99.90;;;;;;5107327;28;20039;-83
2023/04/13 03:20:52;;;;;;;1.27;0.77;;;5.50;99.90;;;;;;5105378;28;20065;-83
2023/04/13 03:23:18;;;;;;;0.93;0.70;;;5.50;99.90;;;;;;5109018;28;20043;-83
2023/04/13 03:25:44;;;;;;;0.60;0.60;;;5.60;99.90;;;;;;5107689;28;20091;-84
2023/04/13 03:28:10;;;;;;;4.03;0.90;;;5.50;99.90;;;;;;5107197;28;20052;-84
2023/04/13 03:30:36;;;;;;;4.13;1.20;;;5.50;99.90;;;;;;5107700;28;20700;-83
2023/04/13 03:33:01;;;;;;;2.60;1.10;;;5.50;99.90;;;;;;5108647;28;20008;-83
2023/04/13 03:35:27;;;;;;;4.00;1.50;;;5.50;99.90;;;;;;5110475;28;20031;-83
2023/04/13 03:37:53;;;;;;;5.47;1.70;;;5.50;99.90;;;;;;5107586;28;20024;-83
2023/04/13 03:40:19;;;;;;;2.27;1.43;;;5.50;99.90;;;;;;5106222;28;20040;-82
2023/04/13 03:42:45;;;;;;;2.53;1.53;;;5.50;99.90;;;;;;5107428;28;20057;-82
2023/04/13 03:45:11;;;;;;;3.07;1.53;;;5.40;99.90;;;;;;5107203;28;20088;-83
2023/04/13 03:47:37;;;;;;;2.60;1.40;;;5.40;99.90;;;;;;5107213;28;20024;-83
2023/04/13 03:50:04;;;;;;;1.47;1.20;;;5.40;99.90;;;;;;5105637;28;20027;-83
2023/04/13 03:52:30;;;;;;;2.07;1.10;;;5.40;99.90;;;;;;5107010;28;20023;-83
2023/04/13 03:54:56;;;;;;;3.60;1.37;;;5.30;99.90;;;;;;5108183;28;20054;-83
2023/04/13 03:57:21;;;;;;;2.03;1.00;;;5.40;99.90;;;;;;5100631;28;20036;-83
2023/04/13 03:59:47;;;;;;;1.67;1.00;;;5.30;99.90;;;;;;5100503;28;20051;-83
2023/04/13 04:02:12;;;;;;;1.40;0.80;;;5.30;99.90;;;;;;5098363;28;20024;-83
2023/04/13 04:04:38;;;;;;;1.43;0.90;;;5.30;99.90;;;;;;5101272;28;20096;-83
2023/04/13 04:07:04;;;;;;;2.80;1.00;;;5.30;99.90;;;;;;5097847;28;20042;-83
2023/04/13 04:09:29;;;;;;;1.47;1.00;;;5.30;99.90;;;;;;5094553;28;20024;-82
2023/04/13 04:11:55;;;;;;;1.10;1.00;;;5.30;99.90;;;;;;5089310;28;20023;-73
2023/04/13 04:14:21;;;;;;;3.00;1.33;;;5.30;99.90;;;;;;5092636;28;20039;-83
2023/04/13 04:16:47;;;;;;;3.27;1.00;;;5.30;99.90;;;;;;5109577;28;20036;-83
2023/04/13 04:19:13;;;;;;;2.47;1.00;;;5.20;99.90;;;;;;5110098;28;20127;-83
2023/04/13 04:21:45;;;;;;;1.37;0.97;;;5.20;99.90;;;;;;5110778;28;20061;-83
2023/04/13 04:24:21;;;;;;;1.47;0.87;;;5.20;99.90;;;;;;5110833;28;20053;-83
2023/04/13 04:26:53;;;;;;;1.03;0.83;;;5.20;99.90;;;;;;5089517;28;20032;-83
2023/04/13 04:29:20;;;;;;;2.67;0.93;;;5.20;99.90;;;;;;5107086;28;20063;-83
2023/04/13 04:31:51;;;;;;;1.40;1.00;;;5.10;99.90;;;;;;5110810;28;20028;-81
2023/04/13 04:34:20;;;;;;;0.80;0.80;;;5.10;99.90;;;;;;5111296;28;20023;-82
2023/04/13 04:36:49;;;;;;;3.23;1.23;;;5.20;99.90;;;;;;5111089;28;20032;-83
2023/04/13 04:39:20;;;;;;;2.37;1.00;;;5.10;99.90;;;;;;5090267;28;20020;-82
2023/04/13 04:41:53;;;;;;;2.30;0.90;;;5.10;99.90;;;;;;5111644;28;20028;-82
2023/04/13 04:44:29;;;;;;;1.67;1.10;;;5.10;99.90;;;;;;5109579;28;20055;-82
2023/04/13 04:46:55;;;;;;;1.00;0.90;;;5.10;99.90;;;;;;5109962;28;20044;-82
2023/04/13 04:49:21;;;;;;;1.20;0.90;;;5.10;99.90;;;;;;5108815;28;20032;-83
2023/04/13 04:51:48;;;;;;;1.70;1.30;;;5.10;99.90;;;;;;5106037;28;20039;-82
2023/04/13 04:54:15;;;;;;;1.97;1.00;;;5.10;99.90;;;;;;5104488;28;20035;-83
2023/04/13 04:56:41;;;;;;;1.17;0.80;;;5.10;99.90;;;;;;5108020;28;20032;-83
2023/04/13 04:59:07;;;;;;;1.37;0.90;;;5.10;99.90;;;;;;5107018;28;20171;-83
2023/04/13 05:01:33;;;;;;;3.60;1.10;;;5.10;99.90;;;;;;5101145;28;20034;-84
2023/04/13 05:04:00;;;;;;;2.57;1.47;;;5.10;99.90;;;;;;5101552;28;20036;-83
2023/04/13 05:06:26;;;;;;;4.10;1.50;;;5.10;99.90;;;;;;5103693;28;20040;-83
2023/04/13 05:08:52;;;;;;;1.90;1.23;;;5.10;99.90;;;;;;5108880;28;20050;-84
2023/04/13 05:11:17;;;;;;;1.93;1.27;;;5.10;99.90;;;;;;5108644;28;20121;-84
2023/04/13 05:13:43;;;;;;;3.00;1.30;;;5.10;99.90;;;;;;5090263;28;20031;-79
2023/04/13 05:16:09;;;;;;;2.00;1.30;;;5.10;99.90;;;;;;5091328;28;20039;-80
2023/04/13 05:18:44;;;;;;;2.73;1.37;;;5.10;99.90;;;;;;5096027;28;20053;-79
2023/04/13 05:21:09;;;;;;;2.88;1.20;;;5.10;99.90;;;;;;5094617;28;20036;-75
2023/04/13 05:23:35;;;;;;;2.83;1.00;;;5.10;99.90;;;;;;5086233;28;20395;-76
2023/04/13 05:26:01;;;;;;;2.90;1.23;;;5.10;99.90;;;;;;5087394;28;20391;-76
2023/04/13 05:28:27;;;;;;;2.03;1.30;;;5.20;99.90;;;;;;5083822;28;20529;-76
2023/04/13 05:30:52;;;;;;;2.07;1.00;;;5.20;99.90;;;;;;5085578;28;20035;-75
2023/04/13 05:33:19;;;;;;;1.10;0.80;;;5.20;99.90;;;;;;5086759;28;20484;-76
2023/04/13 05:35:45;;;;;;;2.93;1.43;;;5.20;99.90;;;;;;5085744;28;20032;-75
2023/04/13 05:38:10;;;;;;;2.60;1.07;;;5.30;99.90;;;;;;5084518;28;20088;-76
2023/04/13 05:40:38;;;;;;;3.10;1.00;;;5.40;99.90;;;;;;5085136;28;20046;-75
2023/04/13 05:43:04;;;;;;;2.13;0.97;;;5.40;99.90;;;;;;5086951;28;20035;-75
2023/04/13 05:45:29;;;;;;;1.90;1.07;;;5.40;99.90;;;;;;5085130;28;20020;-76
2023/04/13 05:47:55;;;;;;;1.80;1.00;;;5.40;99.90;;;;;;5083638;28;20024;-75
2023/04/13 05:50:20;;;;;;;3.17;1.20;;;5.50;99.90;;;;;;5082619;28;20039;-75
2023/04/13 05:52:46;;;;;;;1.93;1.00;;;5.50;99.90;;;;;;5085166;28;20083;-76
2023/04/13 05:55:12;;;;;;;2.87;1.10;;;5.50;99.90;;;;;;5083938;28;20024;-75
2023/04/13 05:57:37;;;;;;;1.87;1.00;;;5.50;99.90;;;;;;5084056;28;20066;-75
2023/04/13 06:00:06;;;;;;;2.93;1.20;;;5.60;99.90;;;;;;5086457;28;20224;-75
2023/04/13 06:02:33;;;;;;;1.57;1.03;;;5.60;99.90;;;;;;5085556;28;20035;-76
2023/04/13 06:05:00;;;;;;;1.70;1.20;;;5.60;99.90;;;;;;5091939;28;20023;-78
2023/04/13 06:07:26;;;;;;;2.87;1.07;;;5.60;99.90;;;;;;5091599;28;20031;-79
2023/04/13 06:09:52;;;;;;;4.13;1.10;;;5.70;99.90;;;;;;5093457;28;20028;-78
2023/04/13 06:12:18;;;;;;;3.50;1.17;;;5.70;99.90;;;;;;5090280;28;20100;-79
2023/04/13 06:14:43;;;;;;;3.40;1.30;;;5.80;99.90;;;;;;5084423;28;20039;-79
2023/04/13 06:17:09;;;;;;;2.37;1.00;;;5.80;99.90;;;;;;5083957;28;20039;-79
2023/04/13 06:19:35;;;;;;;3.33;1.27;;;5.90;99.90;;;;;;5084929;28;21581;-79
2023/04/13 06:22:01;;;;;;;2.47;1.13;;;5.90;99.90;;;;;;5088494;28;20024;-79
2023/04/13 06:24:26;;;;;;;4.07;1.40;;;5.90;99.90;;;;;;5087153;28;20031;-78
2023/04/13 06:26:53;;;;;;;2.27;1.10;;;5.90;99.90;;;;;;5083094;28;20056;-78
2023/04/13 06:29:19;;;;;;;5.00;1.30;;;5.90;99.90;;;;;;5083203;28;20127;-79
2023/04/13 06:31:44;;;;;;;2.73;1.10;;;5.90;99.90;;;;;;5083853;28;20024;-79
2023/04/13 06:34:10;;;;;;;2.17;1.17;;;5.90;99.90;;;;;;5082834;28;20027;-79
2023/04/13 06:36:36;;;;;;;3.43;1.40;;;5.90;99.90;;;;;;5084836;28;20032;-79
2023/04/13 06:39:03;;;;;;;3.87;1.30;;;6.00;99.90;;;;;;5084677;28;20124;-78
2023/04/13 06:41:28;;;;;;;5.07;1.50;;;6.00;99.90;;;;;;5063030;28;20028;-79
2023/04/13 06:43:54;;;;;;;6.80;1.43;;;6.00;99.90;;;;;;5085724;28;20020;-79
2023/04/13 06:46:20;;;;;;;2.77;1.33;;;6.10;99.90;;;;;;5083411;28;21601;-78
2023/04/13 06:48:45;;;;;;;4.80;1.40;;;6.10;99.90;;;;;;5088328;28;20031;-79
2023/04/13 06:51:11;;;;;;;4.43;1.87;;;6.20;99.90;;;;;;5084725;28;20023;-78
2023/04/13 06:53:37;;;;;;;3.90;1.80;;;6.30;99.90;;;;;;5084674;28;20026;-79
2023/04/13 06:56:02;;;;;;;4.00;1.30;;;6.30;99.90;;;;;;5089665;28;20065;-79
2023/04/13 06:58:29;;;;;;;3.00;1.10;;;6.40;99.90;;;;;;5089402;28;20071;-79
2023/04/13 07:00:54;;;;;;;3.63;1.13;;;6.40;99.90;;;;;;5092855;28;20102;-79
2023/04/13 07:03:20;;;;;;;5.23;2.03;;;6.50;99.90;;;;;;5092641;28;20027;-79
2023/04/13 07:05:45;;;;;;;7.40;1.40;;;6.50;99.90;;;;;;5091910;28;20066;-79
2023/04/13 07:08:11;;;;;;;3.40;1.10;;;6.60;99.90;;;;;;5094650;28;20051;-79
2023/04/13 07:10:39;;;;;;;6.43;1.27;;;6.60;99.90;;;;;;5084846;28;20142;-80
2023/04/13 07:13:05;;;;;;;5.13;1.20;;;6.60;99.90;;;;;;5084251;28;20032;-79
2023/04/13 07:15:31;;;;;;;3.53;1.10;;;6.70;99.90;;;;;;5083633;28;20071;-79
2023/04/13 07:17:57;;;;;;;5.00;1.13;;;6.80;99.90;;;;;;5083144;28;20100;-79
2023/04/13 07:20:22;;;;;;;4.10;1.30;;;6.80;99.90;;;;;;5080621;28;20043;-79
2023/04/13 07:22:48;;;;;;;9.37;1.73;;;6.80;99.90;;;;;;5084905;28;20605;-79
2023/04/13 07:25:13;;;;;;;5.80;1.40;;;6.80;99.90;;;;;;5082684;28;20043;-79
2023/04/13 07:27:39;;;;;;;4.60;1.07;;;6.90;99.90;;;;;;5085662;28;20027;-79
2023/04/13 07:30:07;;;;;;;5.47;1.40;;;7.00;99.90;;;;;;5081029;28;20032;-79
2023/04/13 07:32:32;;;;;;;4.33;1.20;;;7.10;99.90;;;;;;5081772;28;20032;-79
2023/04/13 07:35:00;;;;;;;5.17;1.53;;;7.00;99.90;;;;;;5081609;28;20032;-79
2023/04/13 07:37:26;;;;;;;6.00;1.37;;;7.10;99.90;;;;;;5084761;28;20016;-79
2023/04/13 07:39:52;;;;;;;5.13;1.43;;;7.10;99.90;;;;;;5083327;28;20031;-79
2023/04/13 07:42:17;;;;;;;9.43;1.77;;;7.20;99.90;;;;;;5087756;28;20050;-79
2023/04/13 07:44:43;;;;;;;6.87;1.60;;;7.30;99.90;;;;;;5088477;28;20154;-80
2023/04/13 07:47:09;;;;;;;3.00;1.07;;;7.40;99.90;;;;;;5090965;28;20088;-80
2023/04/13 07:49:38;;;;;;;5.73;1.50;;;7.50;99.90;;;;;;5090580;28;20245;-79
2023/04/13 07:52:03;;;;;;;4.67;1.13;;;7.50;99.90;;;;;;5089498;28;20495;-79
2023/04/13 07:54:29;;;;;;;8.90;2.10;;;7.60;99.90;;;;;;5092825;28;20133;-79
2023/04/13 07:56:58;;;;;;;4.90;1.37;;;7.80;99.90;;;;;;5091499;28;20113;-80
2023/04/13 07:59:24;;;;;;;6.87;1.60;;;7.90;99.90;;;;;;5089651;28;20039;-80
2023/04/13 08:01:49;;;;;;;6.73;1.50;;;8.00;99.90;;;;;;5093297;28;20028;-80
2023/04/13 08:04:15;;;;;;;4.30;1.57;;;8.00;99.90;;;;;;5101577;28;20601;-80
2023/04/13 08:06:40;;;;;;;4.47;1.27;;;8.10;99.90;;;;;;5100756;28;20115;-79
2023/04/13 08:09:07;;;;;;;5.60;1.70;;;8.20;99.90;;;;;;5100182;28;20043;-79
2023/04/13 08:11:32;;;;;;;12.83;1.60;;;8.30;99.90;;;;;;5100374;28;20028;-80
2023/04/13 08:13:58;;;;;;;5.40;1.40;;;8.40;99.90;;;;;;5100658;28;20068;-80
2023/04/13 08:16:23;;;;;;;10.60;1.47;;;8.50;99.90;;;;;;5102177;28;20036;-79
2023/04/13 08:18:49;;;;;;;4.57;1.27;;;8.50;99.90;;;;;;5103284;28;20032;-79
2023/04/13 08:21:15;;;;;;;5.17;1.40;;;8.60;99.90;;;;;;5100564;28;20738;-80
2023/04/13 08:23:41;;;;;;;4.23;1.27;;;8.70;99.90;;;;;;5098753;28;20031;-79
2023/04/13 08:26:14;;;;;;;7.43;1.50;;;8.70;99.90;;;;;;5099732;28;20021;-80
2023/04/13 08:28:40;;;;;;;7.13;1.40;;;8.70;99.90;;;;;;5080936;28;20146;-80
2023/04/13 08:31:06;;;;;;;5.97;1.40;;;8.70;99.90;;;;;;5098474;28;20028;-80
2023/04/13 08:33:31;;;;;;;8.33;1.10;;;8.80;99.90;;;;;;5100393;28;20029;-80
2023/04/13 08:35:57;;;;;;;5.23;1.40;;;8.90;99.90;;;;;;5078788;28;20027;-80
2023/04/13 08:38:23;;;;;;;4.87;1.20;;;9.10;99.90;;;;;;5099040;28;20127;-80
2023/04/13 08:40:49;;;;;;;5.97;1.40;;;9.30;99.90;;;;;;5097466;28;20051;-80
2023/04/13 08:43:16;;;;;;;3.67;1.30;;;9.30;99.90;;;;;;5102553;28;20039;-80
2023/04/13 08:45:42;;;;;;;5.73;1.40;;;9.40;99.90;;;;;;5099081;28;20039;-80
2023/04/13 08:48:12;;;;;;;6.77;1.20;;;9.30;99.90;;;;;;5102001;28;20032;-80
2023/04/13 08:50:38;;;;;;;3.33;1.00;;;9.30;99.90;;;;;;5099141;28;20036;-80
2023/04/13 08:53:04;;;;;;;2.10;1.00;;;9.30;99.90;;;;;;5102087;28;21040;-80
2023/04/13 08:55:29;;;;;;;3.13;1.10;;;9.20;99.90;;;;;;5102261;28;20035;-80
2023/04/13 08:57:57;;;;;;;3.37;1.20;;;9.20;99.90;;;;;;5103245;28;20037;-80
2023/04/13 09:00:23;;;;;;;3.80;1.00;;;9.20;99.90;;;;;;5100007;28;20069;-80
2023/04/13 09:02:59;;;;;;;5.37;1.00;;;9.20;99.90;;;;;;5100647;28;20028;-80
2023/04/13 09:05:27;;;;;;;4.10;0.97;;;9.20;99.90;;;;;;5101889;28;20036;-80
2023/04/13 09:07:55;;;;;;;3.53;1.10;;;9.20;99.90;;;;;;5102742;28;20032;-81
2023/04/13 09:10:22;;;;;;;2.87;1.30;;;9.30;99.90;;;;;;5102129;28;20096;-81
2023/04/13 09:12:50;;;;;;;4.30;1.20;;;9.30;99.90;;;;;;5100714;28;20099;-80
2023/04/13 09:15:16;;;;;;;2.67;1.00;;;9.40;99.90;;;;;;5080395;28;20475;-80
2023/04/13 09:17:42;;;;;;;4.23;1.10;;;9.50;99.90;;;;;;5096131;28;20479;-78
2023/04/13 09:20:21;;;;;;;5.93;1.03;;;9.70;99.90;;;;;;5086758;28;20051;-78
2023/04/13 09:22:47;;;;;;;5.90;1.10;;;9.70;99.90;;;;;;5088427;28;20668;-78
2023/04/13 09:25:21;;;;;;;3.27;0.90;;;9.60;99.90;;;;;;5086811;28;20062;-78
2023/04/13 09:27:47;;;;;;;2.93;1.07;;;9.50;99.90;;;;;;5088697;28;20586;-79
2023/04/13 09:30:14;;;;;;;4.00;1.20;;;9.60;99.90;;;;;;5078750;28;20052;-78
2023/04/13 09:32:39;;;;;;;5.77;1.17;;;9.70;99.90;;;;;;5079759;28;20040;-78
2023/04/13 09:35:10;;;;;;;3.97;1.30;;;9.80;99.90;;;;;;5079816;28;20025;-79
2023/04/13 09:37:40;;;;;;;2.87;1.00;;;9.90;99.90;;;;;;5081313;28;20032;-78
2023/04/13 09:40:12;;;;;;;3.83;1.10;;;9.90;99.90;;;;;;5078310;28;20597;-79
2023/04/13 09:42:40;;;;;;;5.23;1.00;;;9.90;99.90;;;;;;5078722;28;20016;-78
2023/04/13 09:45:07;;;;;;;3.07;1.10;;;9.90;99.90;;;;;;5079504;28;20091;-78
2023/04/13 09:47:39;;;;;;;3.30;0.97;;;10.00;99.90;;;;;;5080120;28;20411;-78
2023/04/13 09:50:17;;;;;;;3.53;1.00;;;10.00;99.90;;;;;;5079157;28;20035;-78
2023/04/13 09:52:44;;;;;;;4.43;1.17;;;10.10;99.90;;;;;;5081975;28;20038;-79
2023/04/13 09:55:16;;;;;;;4.33;1.10;;;10.20;99.90;;;;;;5081595;28;20054;-79
2023/04/13 09:57:42;;;;;;;4.63;1.20;;;10.20;99.90;;;;;;5076948;28;20070;-77
2023/04/13 10:00:30;;;;;;;4.57;1.43;;;10.40;99.90;;;;;;5076183;28;20043;-77
2023/04/13 10:03:00;;;;;;;2.60;1.00;;;10.50;99.90;;;;;;5084669;28;20433;-76
2023/04/13 10:05:26;;;;;;;3.43;1.17;;;10.70;99.90;;;;;;5084538;28;20032;-78
2023/04/13 10:07:53;;;;;;;3.17;1.30;;;10.90;99.90;;;;;;5085216;28;20019;-77
2023/04/13 10:10:21;;;;;;;2.85;1.13;;;11.00;99.90;;;;;;5082793;28;20072;-77
2023/04/13 10:12:49;;;;;;;3.85;1.20;;;11.30;99.90;;;;;;5086314;28;20028;-77
2023/04/13 10:15:52;;;;;;;5.03;1.38;;;11.60;99.90;;;;;;5084910;28;20120;-77
2023/04/13 10:18:26;;;;;;;1.92;0.80;;;11.90;99.90;;;;;;5084767;28;20039;-78
2023/04/13 10:20:53;;;;;;;2.95;1.10;;;12.10;99.90;;;;;;5083909;28;20082;-78
2023/04/13 10:23:20;;;;;;;3.38;1.10;;;12.00;99.90;;;;;;5086068;28;20028;-77
2023/04/13 10:25:53;;;;;;;4.10;1.23;;;11.80;99.90;;;;;;5085060;28;20046;-77
2023/04/13 10:28:20;;;;;;;3.75;1.08;;;11.80;99.90;;;;;;5083521;28;20036;-77
2023/04/13 10:30:52;;;;;;;2.13;1.00;;;11.70;99.90;;;;;;5083216;28;20028;-77
2023/04/13 10:33:19;;;;;;;4.57;1.08;;;11.50;99.90;;;;;;5085441;28;20399;-77
2023/04/13 10:36:03;;;;;;;3.47;1.25;;;11.60;99.90;;;;;;5084361;28;20123;-77
2023/04/13 10:38:29;;;;;;;3.22;1.30;;;11.50;99.90;;;;;;5085520;28;20035;-77
2023/04/13 10:40:57;;;;;;;2.60;1.00;;;11.40;99.90;;;;;;5082758;28;20052;-77
2023/04/13 10:43:28;;;;;;;3.80;1.35;;;11.30;99.90;;;;;;5062072;28;20031;-77
2023/04/13 10:46:10;;;;;;;4.35;1.15;;;11.20;99.90;;;;;;5086043;28;20151;-78
2023/04/13 10:48:36;;;;;;;2.92;1.13;;;11.10;99.90;;;;;;5088140;28;20028;-78
2023/04/13 10:51:02;;;;;;;4.03;1.20;;;11.00;99.90;;;;;;5087418;28;20046;-78
2023/04/13 10:53:29;;;;;;;4.32;1.42;;;10.90;99.90;;;;;;5087167;28;20036;-78
2023/04/13 10:55:59;;;;;;;3.33;1.00;;;10.90;99.90;;;;;;5088172;28;20151;-78
2023/04/13 10:58:28;;;;;;;5.55;1.27;;;10.80;99.90;;;;;;5086974;28;20475;-78
2023/04/13 11:00:54;;;;;;;5.77;1.20;;;10.60;99.90;;;;;;5087408;28;20123;-78
2023/04/13 11:03:20;;;;;;;8.50;1.93;;;10.50;99.90;;;;;;5089135;28;20135;-78
2023/04/13 11:05:54;;;;;;;3.93;1.30;;;10.40;99.90;;;;;;5070074;28;20053;-78
2023/04/13 11:08:20;;;;;;;5.47;1.00;;;10.30;99.90;;;;;;5090027;28;20059;-78
2023/04/13 11:10:52;;;;;;;3.47;1.50;;;10.20;99.90;;;;;;5088617;28;20124;-78
2023/04/13 11:13:18;;;;;;;5.80;1.20;;;10.10;99.90;;;;;;5087464;28;20035;-78
2023/04/13 11:15:44;;;;;;;5.33;1.33;;;10.10;99.90;;;;;;5089249;28;20387;-78
2023/04/13 11:18:10;;;;;;;4.37;1.30;;;10.00;99.90;;;;;;5085598;28;20051;-74
2023/04/13 11:20:38;;;;;;;3.40;1.10;;;10.00;99.90;;;;;;5082683;28;20050;-74
2023/04/13 11:23:05;;;;;;;2.53;1.10;;;10.00;99.90;;;;;;5090460;28;20107;-79
2023/04/13 11:25:35;;;;;;;4.40;1.30;;;10.00;99.90;;;;;;5087696;28;20039;-79
2023/04/13 11:28:02;;;;;;;5.73;1.50;;;10.10;99.90;;;;;;5090442;28;20239;-79
2023/04/13 11:30:29;;;;;;;1.77;1.00;;;10.20;99.90;;;;;;5088844;28;20039;-79
2023/04/13 11:32:58;;;;;;;7.97;1.47;;;10.20;99.90;;;;;;5091999;28;20036;-79
2023/04/13 11:35:24;;;;;;;3.43;1.53;;;10.20;99.90;;;;;;5077916;28;20039;-79
2023/04/13 11:37:52;;;;;;;4.33;1.23;;;10.30;99.90;;;;;;5088814;28;20035;-79
2023/04/13 11:40:26;;;;;;;3.37;1.10;;;10.40;99.90;;;;;;5085780;28;20043;-79
2023/04/13 11:42:53;;;;;;;2.60;1.00;;;10.40;99.90;;;;;;5084562;28;20044;-80
2023/04/13 11:45:21;;;;;;;4.37;1.53;;;10.40;99.90;;;;;;5088904;28;20139;-79
2023/04/13 11:47:48;;;;;;;3.03;1.23;;;10.30;99.90;;;;;;5094022;28;20032;-79
2023/04/13 11:50:16;;;;;;;2.17;0.87;;;10.30;99.90;;;;;;5093802;28;20016;-79
2023/04/13 11:52:43;;;;;;;2.67;1.13;;;10.20;99.90;;;;;;5092791;28;20043;-79
2023/04/13 11:55:09;;;;;;;3.87;1.40;;;10.20;99.90;;;;;;5092915;28;20035;-79
2023/04/13 11:57:35;;;;;;;6.00;1.23;;;10.20;99.90;;;;;;5092052;28;20119;-79
2023/04/13 12:00:10;;;;;;;3.45;1.30;;;10.30;99.90;;;;;;5091444;28;20036;-78
2023/04/13 12:02:41;;;;;;;5.60;1.20;;;10.30;99.90;;;;;;5074117;28;20035;-78
2023/04/13 12:05:08;;;;;;;4.33;1.20;;;10.20;99.90;;;;;;5090905;28;20046;-80
2023/04/13 12:07:39;;;;;;;4.23;1.20;;;10.20;99.90;;;;;;5089897;28;20088;-79
2023/04/13 12:10:08;;;;;;;3.80;1.40;;;10.10;99.90;;;;;;5066602;28;20044;-79
2023/04/13 12:12:35;;;;;;;3.17;1.17;;;9.90;99.90;;;;;;5092626;28;20904;-80
2023/04/13 12:15:03;;;;;;;5.47;1.23;;;9.70;99.90;;;;;;5095386;28;20067;-80
2023/04/13 12:17:32;;;;;;;8.30;1.33;;;9.60;99.90;;;;;;5096826;28;20039;-80
2023/04/13 12:19:59;;;;;;;5.10;1.17;;;9.50;99.90;;;;;;5089533;28;20062;-79
2023/04/13 12:22:41;;;;;;;4.63;1.23;;;9.40;99.90;;;;;;5088658;28;20041;-81
2023/04/13 12:25:20;;;;;;;3.33;1.30;;;9.40;99.90;;;;;;5063187;28;20755;-79
2023/04/13 12:27:48;;;;;;;2.90;1.13;;;9.40;99.90;;;;;;5089203;28;20039;-78
2023/04/13 12:30:15;;;;;;;5.83;1.20;;;9.40;99.90;;;;;;5089560;28;20615;-78
2023/04/13 12:32:51;;;;;;;3.20;1.23;;;9.30;99.90;;;;;;5087036;28;20028;-77
2023/04/13 12:35:18;;;;;;;4.17;1.40;;;9.30;99.90;;;;;;5074739;28;20024;-80
2023/04/13 12:37:45;;;;;;;3.53;1.20;;;9.30;99.90;;;;;;5102900;28;20036;-79
2023/04/13 12:40:13;;;;;;;4.07;1.20;;;9.30;99.90;;;;;;5092917;28;20058;-78
2023/04/13 12:42:39;;;;;;;4.40;1.60;;;9.30;99.90;;;;;;5097327;28;20064;-80
2023/04/13 12:45:06;;;;;;;4.97;1.20;;;9.30;99.90;;;;;;5096726;28;20743;-78
2023/04/13 12:47:31;;;;;;;8.60;1.60;;;9.30;99.90;;;;;;5095640;28;20035;-81
2023/04/13 12:49:57;;;;;;;5.67;1.40;;;9.30;99.90;;;;;;5093703;28;20114;-78
2023/04/13 12:52:22;;;;;;;6.63;1.30;;;9.20;99.90;;;;;;5091773;28;20149;-80
2023/04/13 12:54:48;;;;;;;5.53;1.37;;;9.10;99.90;;;;;;5096985;28;20034;-78
2023/04/13 12:57:16;;;;;;;5.00;1.40;;;9.00;99.90;;;;;;5092087;28;20103;-78